Amunt
Inicio > meteoXarxa
Fes-te'n soci

METEOXARXA

Sant Rafel del Riu
Ubicació
Comarca el Baix Maestrat
Altitud (msnm)
Posició geogràfica 40° 35' 24.00" N, 00° 22' 9.84" E
Model
Presa de dades
Font de les dades IVIA
Estadístiques. Resum
Data Temperatura (ºC) Humitat (%) Pressió (hPa) Vent (km/h) Precipit. (mm)
Mínima Mitjana Màxima Mínima Mitjana Màxima Mínima Mitjana Màxima Predom. Mitjana Ràfega màxima Total Dies de pluja
Mínima Mitjana Màxima Mínima Mitjana Màxima
Últimes dades diàries
27-03-2017 6,4     10,4     15,6 88,0 N 4,3 22,6 2,4  
26-03-2017 5,8     10,8     16,1 80,2 NE 4,1 16,4 0,0  
25-03-2017 4,4     10,0     16,3 67,5 S 4,1 20,2 0,0  
24-03-2017 4,6     8,3     12,5 73,2 N 6,4 21,8 0,0  
23-03-2017 4,5     9,5     15,1 62,3 N 5,3 29,1 0,2  
22-03-2017 6,4     11,7     16,5 74,7 SW 4,0 16,1 0,0  
21-03-2017 7,0     12,6     18,0 76,5 W 3,7 15,6 0,2  
20-03-2017 6,2     13,2     20,1 74,6 N 3,8 13,9 0,2  
19-03-2017 5,5     13,0     19,9 71,0 NW 4,2 17,4 0,0  
18-03-2017 4,0     12,8     21,2 51,9 W 3,9 12,6 0,0  
17-03-2017 3,7     11,1     18,9 60,5 SW 4,0 18,2 0,0  
16-03-2017 5,2     11,5     19,0 67,6 W 3,6 14,8 0,0  
15-03-2017 6,3     11,7     18,5 72,4 NW 3,8 14,5 0,0  
14-03-2017 7,6     12,7     19,2 73,6 N 4,8 16,2 0,0  
13-03-2017 7,3     10,6     14,5 81,7 NE 5,9 28,4 7,2  
12-03-2017 9,0     14,6     21,9 64,5 NW 9,1 35,9 4,6  
11-03-2017 6,4     13,1     20,2 79,6 NW 3,8 12,1 0,0  
10-03-2017 8,0     14,9     21,1 66,1 SW 3,8 14,5 0,0  
09-03-2017 7,5     17,2     26,2 47,0 NW 4,2 12,9 0,0  
08-03-2017 10,1     15,5     19,4 62,1 S 6,6 39,4 0,0  
07-03-2017 12,1     17,1     21,3 35,3 NW 14,5 46,0 0,0  
06-03-2017 9,6     15,9     22,1 51,1 NW 5,0 35,2 0,0  
05-03-2017 5,6     12,0     18,1 57,0 SW 3,6 14,1 0,0  
04-03-2017 5,4     9,9     15,8 51,3 W 7,9 33,0 0,4  
03-03-2017 3,9     9,9     14,9 86,8 SW 5,8 32,7 9,9  
02-03-2017 4,8     10,9     17,4 79,6 W 3,4 13,7 0,2  
01-03-2017 6,6     10,8     15,4 71,1 S 4,6 18,5 0,0  
28-02-2017 8,6     13,0     17,8 53,4 W 5,5 26,0 0,0  
27-02-2017 5,6     10,8     16,5 79,6 W 3,8 16,7 0,0  
26-02-2017 4,2     9,8     15,1 85,1 SW 3,4 16,2 0,0  
25-02-2017 2,3     8,4     13,9 69,4 W 3,5 14,8 0,0  
24-02-2017 9,0     11,1     14,7 75,2 N 4,6 20,1 5,0  
Dades del mes en curs (actualitzades fins l'últim dia disponible)
03/2017 3,7 6,4 12,1 12,3 12,5 18,3 26,2 67,7   5,1 46,0 25,3  
Últimes dades mensuals
02/2017 2,3 5,9 10,3 15,6 21,4 26,2 75,5 100,0 NO 5,9 60,9 21,3
01/2017 -1,7 3,1 7,4 12,1 18,3 18,7 68,1 100,0 N 6,4 41,5 139,3
12/2016 -0,8 4,5 11,7 8,0 8,2 13,1 16,8 57,2 87,0 96,8 5,6 34,6 64,9 22
11/2016 2,9 7,8 12,1 12,1 10,9 16,8 24,7 44,2 74,9 96,7 4,9 37,8 118,6 14
10/2016 7,8 12,7 16,8 16,9 15,9 21,7 25,5 60,4 81,8 94,2 3,2 22,5 26,5 15
09/2016 11,8 16,4 21,3 27,0 37,8 18,6 70,2 98,9 O 4,3 45,0 57,1
08/2016 14,1 18,2 23,6 29,0 31,6 24,8 66,8 97,8 S 4,4 24,5 2,8
07/2016 13,0 18,2 24,2 29,6 32,6 21,6 62,2 98,1 S 5,0 28,3 0,6
06/2016 12,2 15,8 20,5 21,1 22,8 26,6 32,4 37,3 63,3 84,5 5,1 38,2 16,3 9
05/2016 7,8 11,7 16,4 21,2 26,5 20,1 68,0 100,0 SO 5,9 45,2 48,4
04/2016 5,1 8,8 13,6 18,5 23,3 23,5 68,6 100,0 NO 6,0 46,9 63,9
03/2016 1,3 6,6 11,0 15,9 22,1 21,1 63,5 100,0 NO 7,3 51,5 45,0
02/2016 -1,4 5,7 10,7 16,2 23,5 15,1 60,0 99,2 NO 6,7 109,4 18,1
Dades de l'any en curs (actualitzades fins l'últim dia disponible)
2017 -1,7 5,1 12,1 9,9 6,2 15,3 26,2 70,4   5,8 60,9 183,3  
Últimes dades anuals
2007 616,0
2008 662,0
2009 -1,4 13,9 22,7 18,9 4,1 24,2 38,2 34,0 65,5 96,0 4,1 60,0 395,0 62
2010 -2,3 10,4 21,7 15,0 3,1 20,0 35,2 32,0 68,5 100,0 5,8 70,0 493,0 99
2011 427,6
2012 542,3
2014 -1,6 11,9 16,4 21,4 31,8 13,7 69,9 99,4 O 5,5 66,9 557,7
2015 -1,6 11,9 17,0 22,7 41,3 7,4 66,1 97,5 NO 5,1 58,4 515,5